Seagoville, Texas
Current Conditions -  °F | °C
As of 8:55 PM on Sunday 23 Nov 2014 (Local Time) from KHQZ Reporting Station
Clear Clear  
Wind Chill: 56°   Ceiling: Unl
Heat Index: 56°   Visibility: 10mi
Dew Point: 40°   Wind: 17mph
Humidity: 54%   Direction: 300°WNW
Pressure: 29.68"   Gusts: 32mph
Location:  32.65°N, 96.54°W
Report Text: KHQZ 240255Z AUTO 30015G28KT 10SM CLR 14/04 A2968 RMK AO1 T01350044
Loading
Personal Weather Stations






























Interactive Weather Map New forecast layout! Learn more

10-Day Weather Forecast

Advertisements
Track Severe Weather on mobile